Weather at Hermiston Municipal Airport

Public forecast

Using degrees Fahrenheit for public forecast. Weather courtesy of forecast.io.

Current aviation weather report (METAR) for Hermiston Municipal Airport

Retrieved 2021/10/23 12:53 UTC (18 minutes ago):

KHRI 231253Z AUTO 18004KT 10SM BKN100 09/07 A2978 RMK AO2 SLP084 T00940072

Closest aviation forecast (TAF) to Hermiston Municipal Airport

Closest forecast is Eastern Oregon Regional At Pendleton Airport, 19.2 nm (35.6 km) ESE. Retrieved 2021/10/23 12:28 UTC (43 minutes ago):

TAF KPDT 231125Z 2312/2412 15007KT P6SM SCT060 BKN100 FM231800 22008KT P6SM -RA SCT030 OVC050 FM240200 22010KT P6SM BKN050 BKN100 FM240900 15020G30KT P6SM SCT050 BKN100